Time;durP1;ratioP1;P1;durP2;ratioP2;P2;SDS_P1;SDS_P2;PMS_P1;PMS_P2;Temp;Humidity;BMP_temperature;BMP_pressure;BME280_temperature;BME280_humidity;BME280_pressure;Samples;Min_cycle;Max_cycle;Signal;HPM_P1;HPM_P2
2021/08/18 00:00:51;;;;;;;15.07;5.93;;;;;;;10.84;100.00;95792.84;5091641;28;20044;-80
2021/08/18 00:03:17;;;;;;;13.15;6.20;;;;;;;10.88;100.00;95796.53;5086701;28;20114;-79
2021/08/18 00:05:43;;;;;;;15.15;5.82;;;;;;;10.89;100.00;95794.69;5085336;28;20028;-80
2021/08/18 00:08:10;;;;;;;17.23;6.10;;;;;;;10.75;100.00;95789.16;5086413;28;20096;-79
2021/08/18 00:10:37;;;;;;;16.70;6.93;;;;;;;10.66;100.00;95774.94;5088633;28;20437;-79
2021/08/18 00:13:04;;;;;;;14.93;6.20;;;;;;;10.71;100.00;95786.25;5092940;28;20044;-78
2021/08/18 00:15:31;;;;;;;13.10;6.03;;;;;;;10.68;100.00;95778.09;5091252;28;20051;-80
2021/08/18 00:18:00;;;;;;;15.35;6.70;;;;;;;10.71;100.00;95785.47;5085208;28;20445;-79
2021/08/18 00:20:29;;;;;;;19.52;6.50;;;;;;;10.79;100.00;95789.41;5080602;28;20048;-79
2021/08/18 00:22:55;;;;;;;18.48;6.30;;;;;;;10.66;100.00;95781.00;5090123;28;20121;-77
2021/08/18 00:25:21;;;;;;;15.88;6.65;;;;;;;10.74;100.00;95777.03;5085535;28;20039;-78
2021/08/18 00:27:47;;;;;;;14.40;6.32;;;;;;;10.77;100.00;95787.03;5089025;28;20123;-79
2021/08/18 00:30:12;;;;;;;16.33;6.10;;;;;;;10.64;100.00;95783.09;5075577;28;20047;-79
2021/08/18 00:32:38;;;;;;;15.68;6.32;;;;;;;10.74;100.00;95782.31;5080251;28;20119;-79
2021/08/18 00:35:04;;;;;;;16.45;6.68;;;;;;;10.67;100.00;95789.66;5093406;28;20044;-78
2021/08/18 00:37:30;;;;;;;16.92;5.95;;;;;;;10.69;100.00;95785.72;5089227;28;20055;-78
2021/08/18 00:39:55;;;;;;;17.23;6.43;;;;;;;10.65;100.00;95784.69;5089573;28;20040;-82
2021/08/18 00:42:21;;;;;;;17.33;5.95;;;;;;;10.61;100.00;95780.22;5082821;28;20044;-80
2021/08/18 00:44:46;;;;;;;17.83;7.03;;;;;;;10.53;100.00;95787.56;5090545;28;20036;-78
2021/08/18 00:47:12;;;;;;;15.38;6.25;;;;;;;10.52;100.00;95780.72;5087881;28;20036;-81
2021/08/18 00:49:37;;;;;;;14.82;6.22;;;;;;;10.58;100.00;95778.88;5086693;28;20081;-79
2021/08/18 00:52:04;;;;;;;20.15;6.40;;;;;;;10.61;100.00;95783.63;5090692;28;20036;-79
2021/08/18 00:54:29;;;;;;;19.73;6.10;;;;;;;10.56;100.00;95771.25;5091256;28;20046;-81
2021/08/18 00:56:57;;;;;;;15.80;6.53;;;;;;;10.61;100.00;95777.56;5088834;28;20529;-79
2021/08/18 00:59:24;;;;;;;18.08;6.78;;;;;;;10.50;100.00;95777.56;5082799;28;20044;-79
2021/08/18 01:01:49;;;;;;;15.98;6.72;;;;;;;10.57;100.00;95780.72;5086536;28;20085;-80
2021/08/18 01:04:15;;;;;;;16.98;6.70;;;;;;;10.53;100.00;95771.78;5088034;28;20044;-78
2021/08/18 01:06:45;;;;;;;19.70;6.97;;;;;;;10.52;100.00;95772.03;5086546;28;20553;-78
2021/08/18 01:09:15;;;;;;;18.77;6.95;;;;;;;10.57;100.00;95772.84;5086733;28;20051;-78
2021/08/18 01:11:46;;;;;;;17.20;6.47;;;;;;;10.61;100.00;95774.94;5088490;28;20097;-78
2021/08/18 01:14:11;;;;;;;15.23;6.80;;;;;;;10.60;100.00;95770.72;5085327;28;20080;-78
2021/08/18 01:16:40;;;;;;;14.38;6.15;;;;;;;10.56;100.00;95771.25;5089517;28;20493;-79
2021/08/18 01:19:07;;;;;;;16.60;6.68;;;;;;;10.58;100.00;95763.88;5090897;28;20044;-79
2021/08/18 01:21:35;;;;;;;15.52;7.10;;;;;;;10.54;100.00;95762.84;5076260;28;20089;-79
2021/08/18 01:24:02;;;;;;;19.40;7.45;;;;;;;10.55;100.00;95764.41;5087474;28;20059;-78
2021/08/18 01:26:29;;;;;;;16.33;6.20;;;;;;;10.56;100.00;95760.72;5086081;28;20066;-79
2021/08/18 01:28:56;;;;;;;17.17;7.20;;;;;;;10.46;100.00;95755.47;5090412;28;20047;-79
2021/08/18 01:31:22;;;;;;;15.85;6.32;;;;;;;10.47;100.00;95751.75;5085715;28;20060;-79
2021/08/18 01:33:47;;;;;;;19.60;7.03;;;;;;;10.47;100.00;95754.38;5077317;28;20043;-79
2021/08/18 01:36:13;;;;;;;19.00;7.50;;;;;;;10.43;100.00;95760.44;5089084;28;20041;-80
2021/08/18 01:38:39;;;;;;;17.38;7.00;;;;;;;10.38;100.00;95763.88;5090904;28;20056;-80
2021/08/18 01:41:04;;;;;;;18.08;7.00;;;;;;;10.37;100.00;95754.38;5086265;28;20039;-79
2021/08/18 01:43:30;;;;;;;16.77;6.50;;;;;;;10.45;100.00;95764.41;5090246;28;20040;-80
2021/08/18 01:45:55;;;;;;;17.55;6.97;;;;;;;10.36;100.00;95760.72;5091175;28;20048;-79
2021/08/18 01:48:24;;;;;;;25.77;7.80;;;;;;;10.37;100.00;95762.28;5084820;28;20032;-79
2021/08/18 01:50:52;;;;;;;17.80;7.28;;;;;;;10.46;100.00;95765.97;5077827;28;20051;-80
2021/08/18 01:53:42;;;;;;;19.27;7.28;;;;;;;10.45;100.00;95759.13;5086889;28;20040;-79
2021/08/18 01:56:09;;;;;;;17.80;6.53;;;;;;;10.45;100.00;95761.75;5089397;28;20060;-79
2021/08/18 01:58:36;;;;;;;19.80;6.70;;;;;;;10.48;100.00;95763.88;5070852;28;20141;-79
2021/08/18 02:01:07;;;;;;;19.08;7.35;;;;;;;10.52;100.00;95762.28;5079749;28;20040;-80
2021/08/18 02:03:33;;;;;;;17.50;6.43;;;;;;;10.49;100.00;95760.19;5089158;28;20445;-79
2021/08/18 02:05:59;;;;;;;17.17;6.90;;;;;;;10.52;100.00;95759.66;5088415;28;20044;-80
2021/08/18 02:08:25;;;;;;;19.25;6.80;;;;;;;10.53;100.00;95765.72;5085651;28;20036;-79
2021/08/18 02:10:51;;;;;;;18.75;6.68;;;;;;;10.53;100.00;95750.72;5083394;28;20091;-79
2021/08/18 02:13:16;;;;;;;18.67;7.00;;;;;;;10.47;100.00;95746.50;5085103;28;20409;-79
2021/08/18 02:15:42;;;;;;;19.30;6.60;;;;;;;10.47;100.00;95751.75;5087811;28;20040;-80
2021/08/18 02:18:09;;;;;;;16.80;7.00;;;;;;;10.53;100.00;95756.00;5088435;28;20127;-78
2021/08/18 02:20:37;;;;;;;19.92;6.97;;;;;;;10.52;100.00;95751.78;5082618;28;20043;-78
2021/08/18 02:23:03;;;;;;;18.88;7.25;;;;;;;10.61;100.00;95751.25;5076844;28;20048;-78
2021/08/18 02:25:30;;;;;;;15.95;6.68;;;;;;;10.66;100.00;95753.88;5081309;28;20091;-79
2021/08/18 02:27:55;;;;;;;15.93;6.30;;;;;;;10.61;100.00;95746.78;5071888;28;20055;-78
2021/08/18 02:30:24;;;;;;;17.27;6.82;;;;;;;10.57;100.00;95746.53;5089209;28;20043;-79
2021/08/18 02:32:50;;;;;;;19.23;6.07;;;;;;;10.58;100.00;95748.09;5080858;28;20052;-78
2021/08/18 02:35:16;;;;;;;19.90;6.93;;;;;;;10.54;100.00;95741.78;5086496;28;20044;-79
2021/08/18 02:37:42;;;;;;;17.95;6.88;;;;;;;10.53;100.00;95750.72;5085513;28;20044;-79
2021/08/18 02:40:09;;;;;;;18.30;6.95;;;;;;;10.55;100.00;95743.34;5085556;28;20029;-82
2021/08/18 02:42:35;;;;;;;17.38;6.65;;;;;;;10.63;100.00;95738.63;5072723;28;20047;-79
2021/08/18 02:45:01;;;;;;;14.98;6.38;;;;;;;10.61;100.00;95736.25;5083212;28;20036;-79
2021/08/18 02:47:27;;;;;;;22.60;7.38;;;;;;;10.65;100.00;95736.53;5090304;28;20038;-80
2021/08/18 02:49:53;;;;;;;19.48;7.25;;;;;;;10.62;100.00;95739.69;5086757;28;20036;-79
2021/08/18 02:52:18;;;;;;;16.48;6.43;;;;;;;10.67;100.00;95744.94;5082584;28;20051;-80
2021/08/18 02:54:44;;;;;;;22.70;7.15;;;;;;;10.63;100.00;95739.41;5080872;28;20044;-81
2021/08/18 02:57:10;;;;;;;19.48;7.32;;;;;;;10.72;100.00;95737.81;5075540;28;20126;-81
2021/08/18 02:59:35;;;;;;;17.38;6.68;;;;;;;10.74;100.00;95738.34;5077459;28;20127;-81
2021/08/18 03:02:01;;;;;;;21.45;7.10;;;;;;;10.73;100.00;95741.25;5078242;28;20032;-79
2021/08/18 03:04:26;;;;;;;24.05;7.75;;;;;;;10.76;100.00;95738.09;5077303;28;20455;-81
2021/08/18 03:06:54;;;;;;;16.88;6.93;;;;;;;10.79;100.00;95742.03;5086839;28;20036;-80
2021/08/18 03:09:21;;;;;;;20.73;6.88;;;;;;;10.85;100.00;95735.72;5088019;28;20425;-80
2021/08/18 03:11:46;;;;;;;21.85;7.78;;;;;;;10.81;100.00;95740.72;5083664;28;20388;-79
2021/08/18 03:14:12;;;;;;;19.00;6.97;;;;;;;10.87;100.00;95744.91;5073842;28;20115;-79
2021/08/18 03:16:37;;;;;;;17.02;7.18;;;;;;;10.89;100.00;95740.19;5082058;28;20041;-79
2021/08/18 03:19:03;;;;;;;21.25;7.97;;;;;;;10.80;100.00;95736.50;5084937;28;20052;-80
2021/08/18 03:21:28;;;;;;;21.02;7.70;;;;;;;10.86;100.00;95735.47;5070805;28;20124;-79
2021/08/18 03:23:54;;;;;;;20.55;7.55;;;;;;;10.87;100.00;95733.59;5077092;28;20041;-79
2021/08/18 03:26:19;;;;;;;17.02;7.13;;;;;;;10.89;100.00;95734.13;5086074;28;20048;-79
2021/08/18 03:28:45;;;;;;;28.77;8.40;;;;;;;10.88;100.00;95730.69;5081269;28;20066;-80
2021/08/18 03:31:10;;;;;;;23.08;7.95;;;;;;;10.89;100.00;95736.78;5081762;28;20123;-79
2021/08/18 03:33:36;;;;;;;23.23;7.00;;;;;;;10.97;100.00;95743.34;5080349;28;20047;-79
2021/08/18 03:36:02;;;;;;;17.83;7.30;;;;;;;11.02;100.00;95743.31;5072377;28;20492;-80
2021/08/18 03:38:27;;;;;;;19.27;7.65;;;;;;;10.96;100.00;95736.47;5080758;28;20090;-80
2021/08/18 03:40:54;;;;;;;22.17;7.53;;;;;;;10.92;100.00;95731.75;5089274;28;20043;-79
2021/08/18 03:43:20;;;;;;;21.35;7.85;;;;;;;11.03;100.00;95731.72;5084149;28;22445;-80
2021/08/18 03:45:46;;;;;;;22.60;8.75;;;;;;;10.98;100.00;95739.66;5077264;28;20066;-78
2021/08/18 03:48:11;;;;;;;18.90;7.47;;;;;;;11.04;100.00;95735.94;5076537;28;20055;-79
2021/08/18 03:50:37;;;;;;;19.92;8.25;;;;;;;11.05;100.00;95729.63;5088090;28;20028;-78
2021/08/18 03:53:02;;;;;;;21.02;8.38;;;;;;;11.04;100.00;95728.06;5086709;28;20040;-78
2021/08/18 03:55:28;;;;;;;20.45;7.35;;;;;;;10.96;100.00;95739.91;5083459;28;20033;-79
2021/08/18 03:57:53;;;;;;;21.52;7.63;;;;;;;11.05;100.00;95745.44;5086470;28;20513;-77
2021/08/18 04:00:19;;;;;;;20.00;7.75;;;;;;;11.07;100.00;95743.31;5080805;28;20047;-79
2021/08/18 04:02:45;;;;;;;22.85;8.15;;;;;;;11.03;100.00;95744.91;5084529;28;20148;-78
2021/08/18 04:05:11;;;;;;;20.20;7.65;;;;;;;11.04;100.00;95749.13;5079831;28;20036;-80
2021/08/18 04:07:37;;;;;;;22.98;8.70;;;;;;;11.04;100.00;95749.13;5088630;28;20497;-80
2021/08/18 04:10:05;;;;;;;17.15;7.40;;;;;;;11.09;100.00;95751.72;5087102;28;20047;-79
2021/08/18 04:12:30;;;;;;;19.83;8.23;;;;;;;11.08;100.00;95755.44;5083127;28;20040;-80
2021/08/18 04:14:56;;;;;;;18.23;7.88;;;;;;;11.06;100.00;95762.78;5089114;28;20047;-80
2021/08/18 04:17:22;;;;;;;23.95;7.45;;;;;;;11.13;100.00;95765.94;5089931;28;20040;-79
2021/08/18 04:19:49;;;;;;;22.98;8.50;;;;;;;11.12;100.00;95769.66;5087528;28;20036;-80
2021/08/18 04:22:14;;;;;;;19.40;7.28;;;;;;;11.16;100.00;95768.06;5089401;28;20055;-81
2021/08/18 04:24:40;;;;;;;20.40;8.00;;;;;;;11.20;100.00;95769.09;5086511;28;20041;-79
2021/08/18 04:27:06;;;;;;;15.23;6.35;;;;;;;11.21;100.00;95764.63;5086274;28;20036;-79
2021/08/18 04:29:31;;;;;;;22.02;7.80;;;;;;;11.22;100.00;95769.63;5076963;28;20040;-79
2021/08/18 04:31:58;;;;;;;19.08;7.25;;;;;;;11.22;100.00;95761.72;5087276;28;20489;-79
2021/08/18 04:34:24;;;;;;;23.48;8.30;;;;;;;11.19;100.00;95767.53;5088776;28;20039;-78
2021/08/18 04:36:50;;;;;;;18.35;7.15;;;;;;;11.26;100.00;95768.03;5088782;28;20046;-80
2021/08/18 04:39:15;;;;;;;18.30;7.25;;;;;;;11.26;100.00;95770.69;5088831;28;20043;-80
2021/08/18 04:41:40;;;;;;;19.67;7.30;;;;;;;11.30;100.00;95772.78;5084646;28;20048;-81
2021/08/18 04:44:06;;;;;;;18.65;7.30;;;;;;;11.23;100.00;95763.31;5087877;28;20040;-80
2021/08/18 04:46:32;;;;;;;18.23;7.18;;;;;;;11.23;100.00;95763.31;5086005;28;20051;-80
2021/08/18 04:48:57;;;;;;;19.95;6.85;;;;;;;11.33;100.00;95774.88;5085523;28;20040;-77
2021/08/18 04:51:23;;;;;;;20.05;7.65;;;;;;;11.34;100.00;95760.66;5071199;28;20529;-77
2021/08/18 04:53:49;;;;;;;22.92;8.43;;;;;;;11.31;100.00;95774.38;5087113;28;20033;-79
2021/08/18 04:56:15;;;;;;;20.27;7.75;;;;;;;11.39;100.00;95765.91;5079125;28;20471;-79
2021/08/18 04:58:41;;;;;;;19.52;7.35;;;;;;;11.47;100.00;95775.91;5071464;28;20102;-79
2021/08/18 05:01:06;;;;;;;22.00;8.38;;;;;;;11.42;100.00;95775.91;5084973;28;20051;-79
2021/08/18 05:03:31;;;;;;;18.50;8.05;;;;;;;11.40;100.00;95778.03;5090442;28;20043;-79
2021/08/18 05:05:57;;;;;;;21.00;8.38;;;;;;;11.48;100.00;95780.13;5084817;28;20052;-78
2021/08/18 05:08:22;;;;;;;17.23;7.47;;;;;;;11.48;100.00;95780.13;5080899;28;20457;-79
2021/08/18 05:10:48;;;;;;;24.13;8.10;;;;;;;11.46;100.00;95776.94;5088789;28;20424;-80
2021/08/18 05:13:14;;;;;;;19.98;8.13;;;;;;;11.42;100.00;95775.91;5071941;28;20787;-81
2021/08/18 05:15:40;;;;;;;21.85;8.13;;;;;;;11.45;100.00;95775.38;5086061;28;20041;-81
2021/08/18 05:18:06;;;;;;;21.70;7.65;;;;;;;11.53;100.00;95772.19;5081393;28;20054;-81
2021/08/18 05:20:31;;;;;;;20.27;8.10;;;;;;;11.59;100.00;95781.66;5084437;28;20040;-80
2021/08/18 05:22:57;;;;;;;20.85;8.30;;;;;;;11.55;100.00;95775.34;5086531;28;20044;-80
2021/08/18 05:25:23;;;;;;;21.83;8.10;;;;;;;11.53;100.00;95776.66;5089885;28;20040;-80
2021/08/18 05:27:48;;;;;;;19.77;8.30;;;;;;;11.55;100.00;95777.19;5082739;28;20358;-79
2021/08/18 05:30:15;;;;;;;21.23;8.10;;;;;;;11.63;100.00;95775.84;5083397;28;20048;-79
2021/08/18 05:32:42;;;;;;;22.08;8.18;;;;;;;11.58;100.00;95777.44;5085053;28;20516;-79
2021/08/18 05:35:10;;;;;;;20.90;8.40;;;;;;;11.58;100.00;95780.09;5092517;28;20047;-79
2021/08/18 05:37:36;;;;;;;23.52;8.85;;;;;;;11.61;100.00;95769.00;5085815;28;20089;-81
2021/08/18 05:40:02;;;;;;;21.58;8.07;;;;;;;11.67;100.00;95782.16;5080335;28;20048;-79
2021/08/18 05:42:27;;;;;;;23.33;8.90;;;;;;;11.66;100.00;95778.72;5093765;28;20039;-81
2021/08/18 05:44:53;;;;;;;21.60;8.23;;;;;;;11.71;100.00;95777.91;5088494;28;20059;-79
2021/08/18 05:47:19;;;;;;;22.88;8.52;;;;;;;11.71;100.00;95772.63;5083261;28;20044;-80
2021/08/18 05:49:44;;;;;;;22.13;8.93;;;;;;;11.82;100.00;95779.44;5079677;28;20040;-81
2021/08/18 05:52:10;;;;;;;24.35;8.55;;;;;;;11.82;100.00;95782.09;5087531;28;20098;-79
2021/08/18 05:54:37;;;;;;;21.80;8.98;;;;;;;11.81;100.00;95775.25;5089662;28;20040;-79
2021/08/18 05:57:04;;;;;;;25.40;8.88;;;;;;;11.91;100.00;95788.41;5085036;28;20040;-78
2021/08/18 05:59:30;;;;;;;19.80;8.65;;;;;;;11.95;100.00;95784.19;5083519;28;20048;-77
2021/08/18 06:01:55;;;;;;;22.77;8.93;;;;;;;12.01;100.00;95792.06;5092500;28;20047;-78
2021/08/18 06:04:21;;;;;;;25.65;9.40;;;;;;;12.06;100.00;95784.13;5085420;28;20521;-79
2021/08/18 06:06:46;;;;;;;23.02;9.50;;;;;;;12.11;100.00;95786.72;5083784;28;20028;-78
2021/08/18 06:09:12;;;;;;;22.35;9.77;;;;;;;12.10;100.00;95785.19;5090088;28;20659;-78
2021/08/18 06:11:40;;;;;;;22.55;9.40;;;;;;;12.13;100.00;95782.00;5087580;28;20062;-78
2021/08/18 06:14:09;;;;;;;27.95;10.38;;;;;;;12.19;100.00;95783.53;5084517;28;20535;-78
2021/08/18 06:16:35;;;;;;;26.50;9.90;;;;;;;12.25;99.76;95790.34;5083875;28;20044;-77
2021/08/18 06:19:01;;;;;;;25.30;10.70;;;;;;;12.34;97.83;95787.16;5084710;28;20529;-78
2021/08/18 06:21:26;;;;;;;23.35;10.02;;;;;;;12.39;98.93;95787.13;5088830;28;20098;-78
2021/08/18 06:24:02;;;;;;;23.33;9.95;;;;;;;12.42;98.74;95797.13;5081259;28;20071;-80
2021/08/18 06:26:27;;;;;;;24.50;10.48;;;;;;;12.54;97.94;95789.66;5087717;28;20055;-79
2021/08/18 06:28:53;;;;;;;30.25;10.30;;;;;;;12.53;97.80;95777.53;5087422;28;20478;-79
2021/08/18 06:31:18;;;;;;;24.25;10.38;;;;;;;12.60;97.80;95788.56;5076688;28;20052;-79
2021/08/18 06:33:44;;;;;;;25.98;10.23;;;;;;;12.67;96.99;95779.53;5083138;28;20139;-80
2021/08/18 06:36:09;;;;;;;26.75;10.50;;;;;;;12.76;96.55;95781.31;5079947;28;20406;-79
2021/08/18 06:38:35;;;;;;;25.55;9.88;;;;;;;12.80;96.03;95784.97;5084706;28;20123;-79
2021/08/18 06:41:00;;;;;;;27.73;11.30;;;;;;;12.88;95.53;95777.53;5084706;28;20177;-80
2021/08/18 06:43:26;;;;;;;22.52;9.98;;;;;;;12.87;95.27;95782.00;5089759;28;20047;-79
2021/08/18 06:45:51;;;;;;;25.95;10.00;;;;;;;12.89;95.11;95785.19;5077025;28;20094;-79
2021/08/18 06:48:17;;;;;;;25.75;11.10;;;;;;;12.89;96.18;95785.19;5086075;28;20119;-80
2021/08/18 06:50:43;;;;;;;29.67;11.40;;;;;;;12.96;94.74;95780.38;5080876;28;20454;-79
2021/08/18 06:53:08;;;;;;;27.33;11.30;;;;;;;13.06;95.77;95778.69;5075147;28;20118;-79
2021/08/18 06:55:35;;;;;;;26.40;11.57;;;;;;;13.13;94.57;95779.16;5089817;28;20092;-79
2021/08/18 06:58:00;;;;;;;26.70;10.52;;;;;;;13.15;94.03;95787.59;5085426;28;20072;-79
2021/08/18 07:00:26;;;;;;;27.10;10.98;;;;;;;13.23;93.79;95772.97;5087163;28;20063;-80
2021/08/18 07:02:52;;;;;;;28.05;11.05;;;;;;;13.37;94.02;95783.72;5085975;28;20183;-79
2021/08/18 07:05:18;;;;;;;26.73;11.02;;;;;;;13.45;93.59;95783.13;5076405;28;20036;-79
2021/08/18 07:07:44;;;;;;;30.25;12.48;;;;;;;13.38;91.93;95780.03;5072676;28;20052;-79
2021/08/18 07:10:11;;;;;;;29.65;11.50;;;;;;;13.50;92.95;95783.03;5084561;28;20044;-79
2021/08/18 07:12:37;;;;;;;28.30;11.60;;;;;;;13.60;93.97;95779.50;5079082;28;20036;-79
2021/08/18 07:15:03;;;;;;;23.38;11.85;;;;;;;13.66;92.15;95781.81;5081986;28;20499;-79
2021/08/18 07:17:29;;;;;;;25.92;10.88;;;;;;;13.76;91.87;95774.81;5082326;28;20044;-79
2021/08/18 07:19:54;;;;;;;40.00;12.15;;;;;;;13.86;91.38;95780.00;5079933;28;20497;-79
2021/08/18 07:22:20;;;;;;;24.38;10.45;;;;;;;13.99;91.11;95779.31;5079230;28;20461;-79
2021/08/18 07:24:45;;;;;;;25.08;10.40;;;;;;;13.95;89.44;95773.03;5080833;28;20051;-79
2021/08/18 07:27:11;;;;;;;27.45;11.68;;;;;;;13.86;89.30;95780.00;5080458;28;20062;-81
2021/08/18 07:29:36;;;;;;;23.02;11.18;;;;;;;13.97;89.06;95776.16;5089355;28;20064;-79
2021/08/18 07:32:02;;;;;;;26.77;11.20;;;;;;;14.01;90.25;95782.47;5087861;28;20036;-81
2021/08/18 07:34:27;;;;;;;25.27;11.40;;;;;;;14.04;89.88;95771.31;5089748;28;20047;-78
2021/08/18 07:36:53;;;;;;;22.67;9.90;;;;;;;14.14;88.01;95777.53;5089433;28;20051;-80
2021/08/18 07:39:18;;;;;;;26.92;11.52;;;;;;;14.13;89.42;95773.31;5095045;28;20101;-77
2021/08/18 07:41:44;;;;;;;29.83;11.20;;;;;;;14.21;87.92;95775.34;5087957;28;20040;-79
2021/08/18 07:44:09;;;;;;;21.30;10.20;;;;;;;14.19;86.88;95780.09;5097423;28;20071;-78
2021/08/18 07:46:35;;;;;;;24.48;10.20;;;;;;;14.24;86.88;95784.53;5095393;28;20040;-78
2021/08/18 07:49:00;;;;;;;24.30;10.40;;;;;;;14.24;86.56;95785.34;5095737;28;20416;-77
2021/08/18 07:51:26;;;;;;;25.67;11.15;;;;;;;14.29;88.87;95782.59;5080663;28;20094;-78
2021/08/18 07:53:51;;;;;;;28.98;9.63;;;;;;;14.34;85.45;95785.19;5083507;28;20039;-77
2021/08/18 07:56:17;;;;;;;28.05;11.50;;;;;;;14.36;87.15;95783.03;5088205;28;20382;-78
2021/08/18 07:58:42;;;;;;;21.92;9.70;;;;;;;14.40;85.37;95780.63;5083045;28;20075;-78
2021/08/18 08:01:08;;;;;;;27.35;10.77;;;;;;;14.47;85.39;95777.63;5092250;28;20119;-79
2021/08/18 08:03:33;;;;;;;20.80;9.82;;;;;;;14.60;84.19;95776.88;5091536;28;20040;-77
2021/08/18 08:05:59;;;;;;;21.27;9.57;;;;;;;14.56;83.88;95786.47;5081503;28;20162;-78
2021/08/18 08:08:25;;;;;;;24.90;10.43;;;;;;;14.67;83.93;95777.34;5094672;28;20044;-78
2021/08/18 08:10:50;;;;;;;21.15;10.57;;;;;;;14.82;85.47;95772.88;5095164;28;20056;-78
2021/08/18 08:13:16;;;;;;;23.27;10.60;;;;;;;14.81;82.24;95784.53;5093175;28;20493;-78
2021/08/18 08:15:41;;;;;;;24.08;10.30;;;;;;;15.02;83.08;95783.13;5089267;28;20108;-78
2021/08/18 08:18:07;;;;;;;22.27;8.50;;;;;;;15.04;81.46;95781.00;5093945;28;20043;-79
2021/08/18 08:20:33;;;;;;;21.98;10.23;;;;;;;14.98;81.62;95787.44;5088193;28;20036;-80
2021/08/18 08:23:01;;;;;;;24.55;9.85;;;;;;;15.06;81.32;95781.47;5085892;28;20045;-79
2021/08/18 08:25:27;;;;;;;22.67;10.18;;;;;;;15.09;80.81;95782.00;5076598;28;20048;-78
2021/08/18 08:27:53;;;;;;;20.48;9.75;;;;;;;15.17;80.56;95781.31;5075829;28;20051;-78
2021/08/18 08:30:19;;;;;;;20.67;10.63;;;;;;;15.16;80.79;95783.19;5080781;28;20126;-79
2021/08/18 08:32:44;;;;;;;23.55;9.80;;;;;;;15.46;80.28;95780.25;5091235;28;20047;-79
2021/08/18 08:35:10;;;;;;;22.55;9.98;;;;;;;15.55;80.23;95791.78;5091802;28;20097;-80
2021/08/18 08:37:36;;;;;;;18.83;9.05;;;;;;;15.59;77.72;95787.47;5093873;28;20048;-80
2021/08/18 08:40:02;;;;;;;18.88;9.13;;;;;;;15.65;77.59;95783.63;5093572;28;20378;-79
2021/08/18 08:42:28;;;;;;;19.90;9.40;;;;;;;15.71;76.85;95787.75;5093034;28;20044;-78
2021/08/18 08:44:57;;;;;;;19.10;8.75;;;;;;;15.62;77.34;95789.53;5091879;28;20145;-80
2021/08/18 08:47:23;;;;;;;21.23;9.70;;;;;;;15.55;78.88;95789.91;5089232;28;20063;-79
2021/08/18 08:49:49;;;;;;;20.15;8.88;;;;;;;15.40;77.94;95793.63;5088438;28;20121;-78
2021/08/18 08:52:15;;;;;;;21.23;9.35;;;;;;;15.46;77.37;95801.47;5089535;28;20059;-78
2021/08/18 08:54:43;;;;;;;23.67;9.88;;;;;;;15.44;78.74;95798.34;5093553;28;20036;-79
2021/08/18 08:57:12;;;;;;;20.77;9.48;;;;;;;15.67;78.41;95792.06;5086652;28;20112;-79
2021/08/18 08:59:38;;;;;;;22.05;9.65;;;;;;;15.74;78.39;95796.97;5091995;28;20041;-79
2021/08/18 09:02:06;;;;;;;26.67;10.23;;;;;;;15.63;80.04;95788.44;5084476;28;20553;-79
2021/08/18 09:04:32;;;;;;;18.25;9.38;;;;;;;15.66;77.22;95795.00;5083110;28;20401;-78
2021/08/18 09:07:11;;;;;;;19.38;9.57;;;;;;;15.55;78.70;95794.44;5093957;28;20036;-78
2021/08/18 09:09:38;;;;;;;16.77;8.23;;;;;;;15.46;76.85;95790.88;5086801;28;20698;-78
2021/08/18 09:12:12;;;;;;;17.27;8.80;;;;;;;15.62;78.47;95797.47;5084997;28;20086;-78
2021/08/18 09:14:38;;;;;;;19.05;9.50;;;;;;;15.67;78.36;95797.38;5090559;28;20044;-78
2021/08/18 09:17:35;;;;;;;20.40;9.18;;;;;;;15.84;78.21;95796.03;5093064;28;20040;-80
2021/08/18 09:20:07;;;;;;;17.70;9.20;;;;;;;15.82;79.17;95792.91;5072883;28;20052;-77
2021/08/18 09:22:37;;;;;;;19.00;9.27;;;;;;;15.86;77.62;95799.16;5090190;28;20042;-79
2021/08/18 09:25:10;;;;;;;22.23;9.35;;;;;;;16.01;76.66;95793.56;5089540;28;20047;-78
2021/08/18 09:27:36;;;;;;;18.85;8.52;;;;;;;15.94;74.70;95801.13;5090816;28;20075;-78
2021/08/18 09:30:02;;;;;;;18.52;8.60;;;;;;;16.06;78.19;95801.44;5094253;28;20044;-79
2021/08/18 09:32:31;;;;;;;18.15;8.50;;;;;;;16.26;75.90;95796.75;5088702;28;20504;-78
2021/08/18 09:35:09;;;;;;;18.35;8.68;;;;;;;16.42;75.76;95800.66;5080469;28;20037;-78
2021/08/18 09:37:37;;;;;;;18.15;8.00;;;;;;;16.49;76.19;95794.16;5086343;28;20397;-78
2021/08/18 09:40:18;;;;;;;17.02;8.35;;;;;;;16.59;76.94;95788.59;5079448;28;20106;-78
2021/08/18 09:42:45;;;;;;;15.73;7.47;;;;;;;16.58;73.43;95797.69;5087941;28;20036;-77
2021/08/18 09:45:12;;;;;;;17.05;7.80;;;;;;;16.47;73.77;95796.34;5089677;28;20044;-78
2021/08/18 09:48:07;;;;;;;16.77;8.43;;;;;;;16.33;74.80;95786.50;5092779;28;20039;-79
2021/08/18 09:50:53;;;;;;;16.98;8.13;;;;;;;16.52;74.13;95782.91;5079689;28;20037;-78
2021/08/18 09:53:36;;;;;;;17.95;8.25;;;;;;;16.47;74.99;95785.72;5078702;28;20115;-79
2021/08/18 09:56:03;;;;;;;18.75;8.18;;;;;;;16.61;74.91;95783.78;5080937;28;20051;-79
2021/08/18 09:58:38;;;;;;;16.85;7.60;;;;;;;16.76;72.72;95786.06;5092658;28;20101;-78
2021/08/18 10:01:08;;;;;;;14.75;7.72;;;;;;;16.66;72.89;95778.34;5090472;28;20525;-78
2021/08/18 10:03:34;;;;;;;16.98;7.97;;;;;;;16.74;72.93;95777.63;5084919;28;20086;-78
2021/08/18 10:06:00;;;;;;;16.52;7.35;;;;;;;16.73;70.44;95789.34;5092754;28;20051;-78
2021/08/18 10:08:27;;;;;;;17.55;7.32;;;;;;;16.82;70.63;95770.00;5086193;28;20032;-78
2021/08/18 10:10:53;;;;;;;16.83;7.88;;;;;;;16.63;70.62;95773.63;5092740;28;20064;-77
2021/08/18 10:13:20;;;;;;;14.95;7.53;;;;;;;16.74;72.86;95780.28;5082846;28;20048;-78
2021/08/18 10:15:46;;;;;;;14.93;7.90;;;;;;;16.47;75.36;95777.75;5098251;28;20040;-77
2021/08/18 10:18:17;;;;;;;15.60;7.40;;;;;;;16.28;71.84;95778.66;5087612;28;20513;-78
2021/08/18 10:20:45;;;;;;;18.02;7.80;;;;;;;16.07;75.23;95784.41;5090458;28;20036;-78
2021/08/18 10:23:11;;;;;;;15.25;7.75;;;;;;;16.18;73.91;95784.22;5091994;28;20486;-78
2021/08/18 10:25:47;;;;;;;16.05;7.95;;;;;;;16.07;74.21;95779.09;5092174;28;20040;-78
2021/08/18 10:28:16;;;;;;;15.80;7.85;;;;;;;16.02;77.53;95781.88;5094059;28;20040;-79
2021/08/18 10:30:47;;;;;;;18.88;7.95;;;;;;;16.21;73.79;95781.72;5084108;28;20036;-76
2021/08/18 10:33:51;;;;;;;16.08;7.55;;;;;;;16.21;74.01;95783.59;5085697;28;20051;-76
2021/08/18 10:36:42;;;;;;;17.15;7.45;;;;;;;16.56;74.64;95781.25;5078987;28;20055;-76
2021/08/18 10:39:36;;;;;;;15.93;8.65;;;;;;;16.60;71.51;95774.25;5089268;28;20074;-77
2021/08/18 10:42:09;;;;;;;17.50;7.53;;;;;;;16.74;72.87;95774.97;5084356;28;20040;-79
2021/08/18 10:44:43;;;;;;;15.52;7.50;;;;;;;16.69;70.14;95771.66;5076317;28;20516;-80
2021/08/18 10:47:13;;;;;;;13.15;6.75;;;;;;;16.60;71.14;95775.00;5082401;28;20081;-80
2021/08/18 10:49:39;;;;;;;16.90;8.18;;;;;;;16.65;74.41;95768.00;5083844;28;20036;-82
2021/08/18 10:52:05;;;;;;;14.55;7.40;;;;;;;16.79;73.48;95753.59;5087731;28;20040;-84
2021/08/18 10:54:31;;;;;;;15.32;7.05;;;;;;;16.97;71.33;95762.47;5081636;28;20560;-82
2021/08/18 10:56:59;;;;;;;16.13;7.90;;;;;;;17.03;70.42;95754.38;5077755;28;20064;-78
2021/08/18 10:59:36;;;;;;;16.55;7.63;;;;;;;16.88;70.32;95763.50;5076309;28;20057;-84
2021/08/18 11:02:40;;;;;;;16.52;7.25;;;;;;;16.80;70.90;95757.81;5082055;28;20041;-82
2021/08/18 11:05:13;;;;;;;17.85;7.80;;;;;;;16.80;71.09;95757.81;5081756;28;20091;-84
2021/08/18 11:08:17;;;;;;;14.27;7.18;;;;;;;16.67;71.57;95763.19;5075967;28;20047;-82
2021/08/18 11:11:03;;;;;;;13.98;7.07;;;;;;;16.67;73.01;95774.59;5079355;28;20085;-84
2021/08/18 11:13:52;;;;;;;17.95;7.30;;;;;;;16.42;73.13;95763.47;5076184;28;20125;-83
2021/08/18 11:16:29;;;;;;;17.15;7.18;;;;;;;16.65;71.12;95762.69;5076135;28;20107;-80
2021/08/18 11:18:57;;;;;;;14.60;7.38;;;;;;;16.87;71.00;95751.31;5079268;28;20059;-79
2021/08/18 11:21:33;;;;;;;16.77;8.07;;;;;;;16.78;73.21;95754.69;5081217;28;20063;-80